createdAt,value
2022-07-29T00:01:57.718Z,21.00
2022-07-29T00:04:24.582Z,21.00
2022-07-29T00:06:51.378Z,20.80
2022-07-29T00:09:18.275Z,20.70
2022-07-29T00:11:45.027Z,20.70
2022-07-29T00:14:11.851Z,20.70
2022-07-29T00:16:38.825Z,20.70
2022-07-29T00:19:05.652Z,20.70
2022-07-29T00:21:34.626Z,20.80
2022-07-29T00:24:01.478Z,20.90
2022-07-29T00:26:32.609Z,20.90
2022-07-29T00:29:31.964Z,20.90
2022-07-29T00:31:47.131Z,21.10
2022-07-29T00:34:32.674Z,21.00
2022-07-29T00:36:59.450Z,21.10
2022-07-29T00:39:26.222Z,21.00
2022-07-29T00:42:03.365Z,21.00
2022-07-29T00:44:30.138Z,21.10
2022-07-29T00:46:56.988Z,21.00
2022-07-29T00:49:23.916Z,21.10
2022-07-29T00:51:50.874Z,21.00
2022-07-29T00:54:17.840Z,20.90
2022-07-29T00:56:44.800Z,20.90
2022-07-29T00:59:11.576Z,20.80
2022-07-29T01:01:38.383Z,20.80
2022-07-29T01:04:06.263Z,20.90
2022-07-29T01:06:33.066Z,20.90
2022-07-29T01:08:59.845Z,21.00
2022-07-29T01:11:26.635Z,20.70
2022-07-29T01:13:53.403Z,20.70
2022-07-29T01:16:22.491Z,20.60
2022-07-29T01:18:50.174Z,20.70
2022-07-29T01:21:36.666Z,20.70
2022-07-29T01:24:17.481Z,20.70
2022-07-29T01:26:44.541Z,20.70
2022-07-29T01:29:23.975Z,20.60
2022-07-29T01:32:08.636Z,20.70
2022-07-29T01:34:57.315Z,20.70
2022-07-29T01:37:28.180Z,20.70
2022-07-29T01:39:55.575Z,20.60
2022-07-29T01:42:28.575Z,20.60
2022-07-29T01:44:57.602Z,20.60
2022-07-29T01:47:24.896Z,20.50
2022-07-29T01:49:52.408Z,20.60
2022-07-29T01:52:45.555Z,20.80
2022-07-29T01:55:15.914Z,20.70
2022-07-29T01:57:43.756Z,20.70
2022-07-29T02:00:10.917Z,20.50
2022-07-29T02:02:38.227Z,20.60
2022-07-29T02:05:05.763Z,20.70
2022-07-29T02:07:32.950Z,20.20
2022-07-29T02:09:59.792Z,20.20
2022-07-29T02:12:26.604Z,20.20
2022-07-29T02:14:54.066Z,20.20
2022-07-29T02:17:25.179Z,20.20
2022-07-29T02:19:52.667Z,20.10
2022-07-29T02:22:19.723Z,20.10
2022-07-29T02:24:46.513Z,20.10
2022-07-29T02:27:13.284Z,20.20
2022-07-29T02:29:40.264Z,20.30
2022-07-29T02:32:07.194Z,20.10
2022-07-29T02:34:34.246Z,20.10
2022-07-29T02:37:01.035Z,19.90
2022-07-29T02:39:27.819Z,19.90
2022-07-29T02:42:02.705Z,19.80
2022-07-29T02:44:34.254Z,19.90
2022-07-29T02:47:16.793Z,19.90
2022-07-29T02:49:53.575Z,19.90
2022-07-29T02:52:24.408Z,19.90
2022-07-29T02:54:51.137Z,20.00
2022-07-29T02:57:25.394Z,19.90
2022-07-29T02:59:52.822Z,19.90
2022-07-29T03:02:19.682Z,19.90
2022-07-29T03:04:46.545Z,19.90
2022-07-29T03:07:14.223Z,19.80
2022-07-29T03:09:42.831Z,19.60
2022-07-29T03:12:09.883Z,19.50
2022-07-29T03:14:36.670Z,19.50
2022-07-29T03:17:03.560Z,19.50
2022-07-29T03:19:30.376Z,19.40
2022-07-29T03:21:57.904Z,19.30
2022-07-29T03:24:27.554Z,19.30
2022-07-29T03:26:55.448Z,19.20
2022-07-29T03:29:22.219Z,19.40
2022-07-29T03:31:51.522Z,19.50
2022-07-29T03:34:18.914Z,19.40
2022-07-29T03:36:45.908Z,19.40
2022-07-29T03:39:12.840Z,19.30
2022-07-29T03:41:39.629Z,19.40
2022-07-29T03:44:06.935Z,19.40
2022-07-29T03:46:33.728Z,19.20
2022-07-29T03:49:01.165Z,19.20
2022-07-29T03:51:33.867Z,19.30
2022-07-29T03:54:06.402Z,19.30
2022-07-29T03:56:38.555Z,19.30
2022-07-29T03:59:05.362Z,19.20
2022-07-29T04:01:33.363Z,19.20
2022-07-29T04:04:00.764Z,19.30
2022-07-29T04:06:27.575Z,19.10
2022-07-29T04:08:54.358Z,19.20
2022-07-29T04:11:21.117Z,19.20
2022-07-29T04:13:47.880Z,19.30
2022-07-29T04:16:14.697Z,19.20
2022-07-29T04:18:41.522Z,19.40
2022-07-29T04:21:08.265Z,19.50
2022-07-29T04:23:35.041Z,19.60
2022-07-29T04:26:02.227Z,19.50
2022-07-29T04:28:29.217Z,19.50
2022-07-29T04:30:56.037Z,19.70
2022-07-29T04:33:22.817Z,19.80
2022-07-29T04:35:52.695Z,19.80
2022-07-29T04:38:23.208Z,19.90
2022-07-29T04:40:50.068Z,19.90
2022-07-29T04:43:16.945Z,20.00
2022-07-29T04:45:49.523Z,19.90
2022-07-29T04:48:16.286Z,20.00
2022-07-29T04:50:43.228Z,20.10
2022-07-29T04:53:10.008Z,20.20
2022-07-29T04:55:39.091Z,20.20
2022-07-29T04:58:05.997Z,20.20
2022-07-29T05:00:33.263Z,20.30
2022-07-29T05:03:00.834Z,20.50
2022-07-29T05:05:27.719Z,20.70
2022-07-29T05:07:54.543Z,20.60
2022-07-29T05:10:21.377Z,20.60
2022-07-29T05:12:48.255Z,20.80
2022-07-29T05:15:15.047Z,20.80
2022-07-29T05:17:41.855Z,20.70
2022-07-29T05:20:08.885Z,20.70
2022-07-29T05:22:35.634Z,20.90
2022-07-29T05:25:08.508Z,21.00
2022-07-29T05:27:36.270Z,20.90
2022-07-29T05:30:03.114Z,21.00
2022-07-29T05:32:29.923Z,21.30
2022-07-29T05:34:56.685Z,21.50
2022-07-29T05:37:23.574Z,21.60
2022-07-29T05:39:56.718Z,21.70
2022-07-29T05:42:24.774Z,21.60
2022-07-29T05:44:51.915Z,21.90
2022-07-29T05:47:18.742Z,22.00
2022-07-29T05:49:45.565Z,22.20
2022-07-29T05:52:12.800Z,22.20
2022-07-29T05:54:40.049Z,22.30
2022-07-29T05:57:06.885Z,22.40
2022-07-29T05:59:36.945Z,22.70
2022-07-29T06:02:06.219Z,23.00
2022-07-29T06:04:33.582Z,23.00
2022-07-29T06:07:00.413Z,23.10
2022-07-29T06:09:27.203Z,23.10
2022-07-29T06:11:54.064Z,23.20
2022-07-29T06:14:20.906Z,23.30
2022-07-29T06:16:47.738Z,23.40
2022-07-29T06:19:14.636Z,23.70
2022-07-29T06:21:44.642Z,23.80
2022-07-29T06:24:12.012Z,23.80
2022-07-29T06:26:40.035Z,23.50
2022-07-29T06:29:07.348Z,23.60
2022-07-29T06:31:34.148Z,23.80
2022-07-29T06:34:00.961Z,24.00
2022-07-29T06:36:37.719Z,24.00
2022-07-29T06:39:05.601Z,24.40
2022-07-29T06:41:33.236Z,24.50
2022-07-29T06:44:00.289Z,24.60
2022-07-29T06:46:27.106Z,24.60
2022-07-29T06:48:54.125Z,24.60
2022-07-29T06:51:22.220Z,25.00
2022-07-29T06:53:59.611Z,25.30
2022-07-29T06:56:38.565Z,25.40
2022-07-29T06:59:07.719Z,25.50
2022-07-29T07:01:34.713Z,25.50
2022-07-29T07:04:01.559Z,25.80
2022-07-29T07:06:28.590Z,25.90
2022-07-29T07:08:55.662Z,26.00
2022-07-29T07:11:22.435Z,25.90
2022-07-29T07:13:49.291Z,25.80
2022-07-29T07:16:16.216Z,26.40
2022-07-29T07:18:43.213Z,26.40
2022-07-29T07:21:10.023Z,26.70
2022-07-29T07:23:36.792Z,26.70
2022-07-29T07:26:04.158Z,26.60
2022-07-29T07:28:30.960Z,26.90
2022-07-29T07:30:58.845Z,27.00
2022-07-29T07:33:25.869Z,27.10
2022-07-29T07:35:52.667Z,27.40
2022-07-29T07:38:19.477Z,27.50
2022-07-29T07:40:47.536Z,27.10
2022-07-29T07:43:14.393Z,27.20
2022-07-29T07:45:41.323Z,27.50
2022-07-29T07:48:08.138Z,27.50
2022-07-29T07:50:35.087Z,27.70
2022-07-29T07:53:07.725Z,27.70
2022-07-29T07:56:08.894Z,28.00
2022-07-29T07:58:26.107Z,28.50
2022-07-29T08:00:53.134Z,28.80
2022-07-29T08:03:20.310Z,28.50
2022-07-29T08:05:48.532Z,28.70
2022-07-29T08:08:15.319Z,28.90
2022-07-29T08:10:54.354Z,29.20
2022-07-29T08:13:21.690Z,28.60
2022-07-29T08:15:48.594Z,28.70
2022-07-29T08:18:15.450Z,28.90
2022-07-29T08:20:45.176Z,29.20
2022-07-29T08:23:12.051Z,29.50
2022-07-29T08:25:40.520Z,29.30
2022-07-29T08:28:08.099Z,29.40
2022-07-29T08:30:35.291Z,29.60
2022-07-29T08:33:02.153Z,29.80
2022-07-29T08:35:35.061Z,29.90
2022-07-29T08:38:04.403Z,30.20
2022-07-29T08:40:32.629Z,30.00
2022-07-29T08:43:08.025Z,30.00
2022-07-29T08:46:03.554Z,30.20
2022-07-29T08:48:33.661Z,30.20
2022-07-29T08:51:00.460Z,30.50
2022-07-29T08:53:30.285Z,30.20
2022-07-29T08:55:57.209Z,30.20
2022-07-29T08:58:24.996Z,29.70
2022-07-29T09:00:53.043Z,29.70
2022-07-29T09:03:23.875Z,30.00
2022-07-29T09:05:50.673Z,30.20
2022-07-29T09:08:17.621Z,30.50
2022-07-29T09:10:44.752Z,30.70
2022-07-29T09:13:11.573Z,30.80
2022-07-29T09:15:38.372Z,30.60
2022-07-29T09:18:05.160Z,30.60
2022-07-29T09:20:52.196Z,31.00
2022-07-29T09:23:23.971Z,31.10
2022-07-29T09:25:51.585Z,31.40
2022-07-29T09:28:18.546Z,31.20
2022-07-29T09:30:55.161Z,31.50
2022-07-29T09:33:31.450Z,31.90
2022-07-29T09:36:05.115Z,32.10
2022-07-29T09:38:32.953Z,32.50
2022-07-29T09:41:05.790Z,32.80
2022-07-29T09:43:33.535Z,33.10
2022-07-29T09:46:15.245Z,32.60
2022-07-29T09:48:42.130Z,32.60
2022-07-29T09:51:38.097Z,32.90
2022-07-29T09:54:26.845Z,32.40
2022-07-29T09:56:53.856Z,32.60
2022-07-29T09:59:27.452Z,32.40
2022-07-29T10:01:55.521Z,33.00
2022-07-29T10:04:22.570Z,33.60
2022-07-29T10:07:04.841Z,34.00
2022-07-29T10:09:32.799Z,34.20
2022-07-29T10:12:06.315Z,33.90
2022-07-29T10:14:34.199Z,34.20
2022-07-29T10:17:02.048Z,34.10
2022-07-29T10:19:40.313Z,33.80
2022-07-29T10:22:08.367Z,34.00
2022-07-29T10:24:35.380Z,34.70
2022-07-29T10:27:03.158Z,34.70
2022-07-29T10:29:32.360Z,34.90
2022-07-29T10:32:02.269Z,35.40
2022-07-29T10:34:47.758Z,35.70
2022-07-29T10:37:35.522Z,36.00
2022-07-29T10:40:35.813Z,35.90
2022-07-29T10:43:05.721Z,35.50
2022-07-29T10:45:32.687Z,36.40
2022-07-29T10:48:08.733Z,35.70
2022-07-29T10:50:56.033Z,36.10
2022-07-29T10:53:24.565Z,36.60
2022-07-29T10:55:52.575Z,36.70
2022-07-29T10:58:21.435Z,36.80
2022-07-29T11:03:50.775Z,37.50
2022-07-29T11:06:26.615Z,38.60
2022-07-29T11:09:13.277Z,37.90
2022-07-29T11:11:44.053Z,38.30
2022-07-29T11:14:18.792Z,39.20
2022-07-29T11:19:52.812Z,38.80
2022-07-29T11:22:34.994Z,37.60
2022-07-29T11:25:16.954Z,37.90
2022-07-29T11:27:44.036Z,38.20
2022-07-29T11:30:13.271Z,38.30
2022-07-29T11:32:49.606Z,38.80
2022-07-29T11:35:19.121Z,39.30
2022-07-29T11:37:52.751Z,40.20
2022-07-29T11:40:24.708Z,41.10
2022-07-29T11:45:48.395Z,42.60
2022-07-29T11:48:31.483Z,43.60
2022-07-29T11:51:00.530Z,43.40
2022-07-29T11:53:29.055Z,42.80
2022-07-29T11:55:59.968Z,42.40
2022-07-29T11:58:27.297Z,43.00
2022-07-29T12:00:55.460Z,43.60
2022-07-29T12:03:34.977Z,44.20
2022-07-29T12:06:02.431Z,44.50
2022-07-29T12:07:03.447Z,41.90
2022-07-29T12:08:53.248Z,43.60
2022-07-29T12:11:24.085Z,44.80
2022-07-29T12:13:51.653Z,45.20
2022-07-29T12:16:25.056Z,45.30
2022-07-29T12:19:11.171Z,46.00
2022-07-29T12:21:56.739Z,44.70
2022-07-29T12:24:27.396Z,44.10
2022-07-29T12:26:58.352Z,44.80
2022-07-29T12:29:33.996Z,45.20
2022-07-29T12:34:29.674Z,45.80
2022-07-29T12:36:56.792Z,45.90
2022-07-29T12:39:23.597Z,45.20
2022-07-29T12:42:12.198Z,44.30
2022-07-29T12:44:56.320Z,45.90
2022-07-29T12:47:29.549Z,45.80
2022-07-29T12:50:22.073Z,45.30
2022-07-29T12:52:52.078Z,45.00
2022-07-29T12:55:45.296Z,46.60
2022-07-29T12:58:12.311Z,47.10
2022-07-29T13:00:39.194Z,47.10
2022-07-29T13:03:07.284Z,47.70
2022-07-29T13:05:47.080Z,47.50
2022-07-29T13:08:22.051Z,47.40
2022-07-29T13:10:49.136Z,46.80
2022-07-29T13:13:16.012Z,47.10
2022-07-29T13:15:43.729Z,47.60
2022-07-29T13:18:29.399Z,48.00
2022-07-29T13:20:56.207Z,48.40
2022-07-29T13:23:23.268Z,46.40
2022-07-29T13:25:51.957Z,47.40
2022-07-29T13:28:18.998Z,47.70
2022-07-29T13:30:45.809Z,47.80
2022-07-29T13:33:17.398Z,47.60
2022-07-29T13:35:44.187Z,47.70
2022-07-29T13:38:11.409Z,46.30
2022-07-29T13:41:36.519Z,46.60
2022-07-29T13:44:03.798Z,46.90
2022-07-29T13:46:30.664Z,43.80
2022-07-29T13:48:57.527Z,43.00
2022-07-29T13:51:24.342Z,45.00
2022-07-29T13:53:51.121Z,46.60
2022-07-29T13:56:17.929Z,47.40
2022-07-29T13:58:46.002Z,47.70
2022-07-29T14:01:12.891Z,48.80
2022-07-29T14:03:45.718Z,49.00
2022-07-29T14:06:12.863Z,47.20
2022-07-29T14:08:39.726Z,45.00
2022-07-29T14:11:06.555Z,45.00
2022-07-29T14:13:33.379Z,45.60
2022-07-29T14:16:00.229Z,45.90
2022-07-29T14:18:27.053Z,45.80
2022-07-29T14:20:54.031Z,45.70
2022-07-29T14:23:20.837Z,47.20
2022-07-29T14:25:47.654Z,47.30
2022-07-29T14:28:16.270Z,46.50
2022-07-29T14:30:43.385Z,47.10
2022-07-29T14:33:11.231Z,46.80
2022-07-29T14:35:38.135Z,46.00
2022-07-29T14:38:04.950Z,44.60
2022-07-29T14:40:31.714Z,45.00
2022-07-29T14:42:58.500Z,45.00
2022-07-29T14:45:25.336Z,42.80
2022-07-29T14:47:55.120Z,41.90
2022-07-29T14:50:31.626Z,41.20
2022-07-29T14:52:59.509Z,40.20
2022-07-29T14:55:26.328Z,39.70
2022-07-29T14:57:56.934Z,39.40
2022-07-29T15:00:33.303Z,38.90
2022-07-29T15:03:02.410Z,38.40
2022-07-29T15:05:30.001Z,38.00
2022-07-29T15:07:56.906Z,37.40
2022-07-29T15:10:24.747Z,37.70
2022-07-29T15:12:51.708Z,37.70
2022-07-29T15:15:18.557Z,38.00
2022-07-29T15:17:45.697Z,37.70
2022-07-29T15:20:12.901Z,37.00
2022-07-29T15:22:40.343Z,36.60
2022-07-29T15:25:07.315Z,35.70
2022-07-29T15:27:34.136Z,35.80
2022-07-29T15:30:00.898Z,35.80
2022-07-29T15:32:27.679Z,35.50
2022-07-29T15:34:54.432Z,35.40
2022-07-29T15:37:21.488Z,35.20
2022-07-29T15:39:48.250Z,35.30
2022-07-29T15:42:15.054Z,35.50
2022-07-29T15:44:44.675Z,36.40
2022-07-29T15:47:11.438Z,37.00
2022-07-29T15:49:48.433Z,36.90
2022-07-29T15:52:16.932Z,36.80
2022-07-29T15:54:43.757Z,36.90
2022-07-29T15:57:10.686Z,37.00
2022-07-29T15:59:37.457Z,36.70
2022-07-29T16:02:04.329Z,36.50
2022-07-29T16:04:32.091Z,36.40
2022-07-29T16:06:59.189Z,36.10
2022-07-29T16:09:26.376Z,36.00
2022-07-29T16:11:54.146Z,36.10
2022-07-29T16:14:21.056Z,35.60
2022-07-29T16:16:48.375Z,36.00
2022-07-29T16:19:15.244Z,36.10
2022-07-29T16:21:42.258Z,35.70
2022-07-29T16:24:09.087Z,35.40
2022-07-29T16:26:35.928Z,35.80
2022-07-29T16:29:02.733Z,36.30
2022-07-29T16:31:29.616Z,36.50
2022-07-29T16:33:56.508Z,37.00
2022-07-29T16:36:23.321Z,37.40
2022-07-29T16:38:50.861Z,37.50
2022-07-29T16:41:17.714Z,37.30
2022-07-29T16:43:44.551Z,37.20
2022-07-29T16:46:13.991Z,37.40
2022-07-29T16:48:45.728Z,38.10
2022-07-29T16:51:14.221Z,38.20
2022-07-29T16:53:41.673Z,38.50
2022-07-29T16:56:11.204Z,39.50
2022-07-29T16:58:43.603Z,40.10
2022-07-29T17:01:11.195Z,40.70
2022-07-29T17:04:00.246Z,40.40
2022-07-29T17:06:28.741Z,39.30
2022-07-29T17:08:56.646Z,38.40
2022-07-29T17:11:52.609Z,37.70
2022-07-29T17:14:10.351Z,37.20
2022-07-29T17:16:37.205Z,36.70
2022-07-29T17:19:04.101Z,36.10
2022-07-29T17:21:30.927Z,36.10
2022-07-29T17:23:59.448Z,36.30
2022-07-29T17:26:28.114Z,36.70
2022-07-29T17:28:55.308Z,37.20
2022-07-29T17:31:22.164Z,36.50
2022-07-29T17:33:49.021Z,35.50
2022-07-29T17:36:24.918Z,35.30
2022-07-29T17:38:52.896Z,34.70
2022-07-29T17:41:20.081Z,34.20
2022-07-29T17:43:46.875Z,34.10
2022-07-29T17:46:13.839Z,33.80
2022-07-29T17:48:41.262Z,33.70
2022-07-29T17:51:08.335Z,33.60
2022-07-29T17:53:35.179Z,33.60
2022-07-29T17:56:02.139Z,33.40
2022-07-29T17:58:28.972Z,33.20
2022-07-29T18:00:55.822Z,33.20
2022-07-29T18:03:22.737Z,33.10
2022-07-29T18:05:49.674Z,33.00
2022-07-29T18:08:17.104Z,33.10
2022-07-29T18:16:05.302Z,32.30
2022-07-29T18:18:32.304Z,32.10
2022-07-29T18:20:59.074Z,31.90
2022-07-29T18:23:25.906Z,32.10
2022-07-29T18:25:52.834Z,31.70
2022-07-29T18:28:19.812Z,31.50
2022-07-29T18:30:47.607Z,31.30
2022-07-29T18:33:22.101Z,31.10
2022-07-29T18:35:50.092Z,31.00
2022-07-29T18:38:17.007Z,30.80
2022-07-29T18:40:45.801Z,30.60
2022-07-29T18:43:12.963Z,30.40
2022-07-29T18:45:39.873Z,30.20
2022-07-29T18:48:12.836Z,30.00
2022-07-29T18:50:40.633Z,30.00
2022-07-29T18:53:07.477Z,29.90
2022-07-29T18:55:34.358Z,30.00
2022-07-29T18:58:01.398Z,30.20
2022-07-29T19:00:28.321Z,30.10
2022-07-29T19:02:56.839Z,29.70
2022-07-29T19:05:23.794Z,29.50
2022-07-29T19:07:50.734Z,29.60
2022-07-29T19:10:17.603Z,29.40
2022-07-29T19:12:44.545Z,29.40
2022-07-29T19:15:11.577Z,29.40
2022-07-29T19:17:38.938Z,29.10
2022-07-29T19:20:06.354Z,28.90
2022-07-29T19:22:34.246Z,28.80
2022-07-29T19:25:01.089Z,28.60
2022-07-29T19:27:27.927Z,28.30
2022-07-29T19:29:57.755Z,28.20
2022-07-29T19:32:26.203Z,28.40
2022-07-29T19:35:11.346Z,28.50
2022-07-29T19:37:38.130Z,28.60
2022-07-29T19:40:05.794Z,28.50
2022-07-29T19:42:32.638Z,28.30
2022-07-29T19:44:59.411Z,28.30
2022-07-29T19:47:26.190Z,28.30
2022-07-29T19:49:53.103Z,28.20
2022-07-29T19:52:19.871Z,27.90
2022-07-29T19:54:46.769Z,27.80
2022-07-29T19:57:14.156Z,27.60
2022-07-29T19:59:41.229Z,27.40
2022-07-29T20:02:10.994Z,27.40
2022-07-29T20:04:38.725Z,27.50
2022-07-29T20:07:05.801Z,27.40
2022-07-29T20:09:32.601Z,27.40
2022-07-29T20:11:59.428Z,27.50
2022-07-29T20:14:26.322Z,27.50
2022-07-29T20:16:54.500Z,27.60
2022-07-29T20:19:21.437Z,27.70
2022-07-29T20:21:48.268Z,27.80
2022-07-29T20:24:15.145Z,27.60
2022-07-29T20:26:41.942Z,27.40
2022-07-29T20:29:09.235Z,27.20
2022-07-29T20:31:36.153Z,27.00
2022-07-29T20:34:03.172Z,27.10
2022-07-29T20:36:30.101Z,27.30
2022-07-29T20:38:56.958Z,27.20
2022-07-29T20:41:23.760Z,27.30
2022-07-29T20:43:50.516Z,27.10
2022-07-29T20:46:18.294Z,27.00
2022-07-29T20:48:45.467Z,26.90
2022-07-29T20:51:12.361Z,26.70
2022-07-29T20:53:40.026Z,26.60
2022-07-29T20:56:07.042Z,26.60
2022-07-29T20:58:34.310Z,26.50
2022-07-29T21:01:01.164Z,26.30
2022-07-29T21:03:28.094Z,26.20
2022-07-29T21:05:54.858Z,26.20
2022-07-29T21:08:21.687Z,26.40
2022-07-29T21:10:48.727Z,26.40
2022-07-29T21:13:16.400Z,26.50
2022-07-29T21:15:46.273Z,26.40
2022-07-29T21:18:42.384Z,26.40
2022-07-29T21:21:09.166Z,26.30
2022-07-29T21:23:36.100Z,26.20
2022-07-29T21:26:03.120Z,26.10
2022-07-29T21:28:35.781Z,26.20
2022-07-29T21:31:03.372Z,26.30
2022-07-29T21:33:30.423Z,26.50
2022-07-29T21:36:26.734Z,26.50
2022-07-29T21:38:44.155Z,26.60
2022-07-29T21:41:12.679Z,26.60
2022-07-29T21:43:41.890Z,26.50
2022-07-29T21:46:09.045Z,26.40
2022-07-29T21:48:36.021Z,26.30
2022-07-29T21:51:02.849Z,26.40
2022-07-29T21:53:30.624Z,26.30
2022-07-29T21:55:57.766Z,26.50
2022-07-29T21:58:26.158Z,26.40
2022-07-29T22:00:52.995Z,26.30
2022-07-29T22:03:19.791Z,26.20
2022-07-29T22:05:46.579Z,26.20
2022-07-29T22:08:13.756Z,26.30
2022-07-29T22:10:40.595Z,26.10
2022-07-29T22:13:07.426Z,26.10
2022-07-29T22:15:34.284Z,26.20
2022-07-29T22:18:01.160Z,26.20
2022-07-29T22:20:28.037Z,26.00
2022-07-29T22:22:54.911Z,26.00
2022-07-29T22:25:21.681Z,25.90
2022-07-29T22:27:48.558Z,25.80
2022-07-29T22:30:15.537Z,25.70
2022-07-29T22:32:42.531Z,25.70
2022-07-29T22:35:09.865Z,25.60
2022-07-29T22:37:36.839Z,25.40
2022-07-29T22:40:03.914Z,25.40
2022-07-29T22:42:30.823Z,25.20
2022-07-29T22:44:57.641Z,25.10
2022-07-29T22:47:45.791Z,25.10
2022-07-29T22:50:11.306Z,24.90
2022-07-29T22:52:38.225Z,25.10
2022-07-29T22:55:05.146Z,25.00
2022-07-29T22:57:32.049Z,25.10
2022-07-29T23:00:01.743Z,25.10
2022-07-29T23:02:28.655Z,24.90
2022-07-29T23:04:55.428Z,24.90
2022-07-29T23:07:22.351Z,25.00
2022-07-29T23:09:49.215Z,25.10
2022-07-29T23:12:16.069Z,25.10
2022-07-29T23:14:44.122Z,25.10
2022-07-29T23:17:10.984Z,24.90
2022-07-29T23:19:37.904Z,25.00
2022-07-29T23:22:05.019Z,24.80
2022-07-29T23:24:31.830Z,24.70
2022-07-29T23:26:58.912Z,24.70
2022-07-29T23:29:26.453Z,24.70
2022-07-29T23:31:53.298Z,24.70
2022-07-29T23:34:20.183Z,24.80
2022-07-29T23:36:47.024Z,24.80
2022-07-29T23:39:13.880Z,24.70
2022-07-29T23:41:40.781Z,24.70
2022-07-29T23:44:07.843Z,24.80
2022-07-29T23:46:34.780Z,24.80
2022-07-29T23:49:01.657Z,24.80
2022-07-29T23:51:29.370Z,24.50
2022-07-29T23:53:56.372Z,24.50
2022-07-29T23:56:23.280Z,24.30
2022-07-29T23:58:50.222Z,24.30
